Ana Sayfa
METAR-TAF:

METAR-TAF

Havaalanları :

Brown Field Municipal Airport

San Diego, Kaliforniya, Amerika Birleşik Devletleri

Enlem: 32-34-31N, Boylam: 116-59-35W, yükseklik: 164 m

Güncel hava durumu gözlemi

Rapor saat 14:53 UTC de 55 dakika önce yapıldı.
Rüzgar kuzeydoğudan 4 kt
Sıcaklık 16°C
Nem 68%
Basınç 1015 hPa
Görüş mesafesi: 16.1 km
2000 ft yükseklikte parçalı çok bulutlu

METAR: KSDM 221453Z COR 05004KT 10SM BKN020 16/10 A2998 RMK AO2 SLP150 T01610100 51013

Saat: 08:48 (15:48 UTC)


TAF: eksik

4.000'den fazla havaalanı için hava durumu gözlemleri ve tahminleri (METAR ve TAF raporları).

Kullanılabilir istasyonlar harita üzerinde sarı ve kırmızı noktalarla gösterilir.

İstasyonun adını görmek için fareyi noktanın üzerinde gezdirin.

Sonrasında hava gözlem ve tahminlerini görmek için tıklayın.

Haritayı değiştirmek için: yaklaştırmak için siyah artı işaretli yeşil düğmeye ve uzaklaştırmak için de eksi işaretli düğmeye hızla tıklayın; bitişik haritalar için yeşil okları kullanın.


METAR-TAF: